EW6328 Weather Reports


time (UTC)temp
C
wind
direction
speed
KPH
gust
KPH
rain 1hr
cm
rain 24hr
cm
rain mn
cm
humidity
%
barometer
mb
20190419071018 21 296 3.2 6.4 0.00 0.00 0.00 42
20190419070017 21 297 6.4 9.7 0.00 0.00 0.00 41
20190419065017 21 296 3.2 9.7 0.00 0.00 0.00 41
20190419064018 22 298 6.4 11.3 0.00 0.00 0.00 41
20190419063018 22 310 3.2 6.4 0.00 0.00 0.00 42
20190419062017 22 311 4.8 11.3 0.00 0.00 0.00 42
20190419061016 22 300 8.0 12.9 0.00 0.00 0.00 41
20190419060018 22 324 6.4 14.5 0.00 0.00 0.00 43
20190419055018 22 293 8.0 14.5 0.00 0.00 0.00 41
20190419054017 23 279 9.7 19.3 0.00 0.00 0.00 41
20190419053018 23 271 4.8 14.5 0.00 0.00 0.00 42
20190419052019 23 294 4.8 14.5 0.00 0.00 0.00 43
20190419051019 22 296 8.0 19.3 0.00 0.00 0.00 42
20190419050023 22 282 9.7 19.3 0.00 0.00 0.00 43
20190419045016 22 280 6.4 11.3 0.00 0.00 0.00 42
20190419044018 23 296 8.0 19.3 0.00 0.00 0.00 41
20190419043018 23 297 6.4 16.1 0.00 0.00 0.00 43
20190419042016 23 312 6.4 14.5 0.00 0.00 0.00 44
20190419041018 22 277 6.4 11.3 0.00 0.00 0.00 45
20190419040018 22 281 8.0 17.7 0.00 0.00 0.00 46
20190419035018 22 309 6.4 14.5 0.00 0.00 0.00 48
20190419034019 23 290 6.4 14.5 0.00 0.00 0.00 46
20190419033018 22 337 3.2 12.9 0.00 0.00 0.00 49
20190419032017 22 262 6.4 14.5 0.00 0.00 0.00 49
20190419031017 22 292 4.8 9.7 0.00 0.00 0.00 51
20190419030016 21 19 4.8 11.3 0.00 0.00 0.00 51
20190419025018 21 326 6.4 11.3 0.00 0.00 0.00 52
20190419024019 21 5 4.8 11.3 0.00 0.00 0.00 54
20190419023018 21 312 4.8 11.3 0.00 0.00 0.00 56
20190419022019 20 295 4.8 12.9 0.00 0.00 0.00 58
20190419021017 19 315 3.2 9.7 0.00 0.00 0.00 65
20190419020017 18 267 8.0 14.5 0.00 0.00 0.00 62
20190419015017 20 350 4.8 8.0 0.00 0.00 0.00 62
20190419014017 19 40 4.8 9.7 0.00 0.00 0.00 64
20190419013017 18 48 3.2 8.0 0.00 0.00 0.00 67
20190419012019 18 18 3.2 8.0 0.00 0.00 0.00 67
20190419011018 18 328 4.8 9.7 0.00 0.00 0.00 69
20190419010016 17 356 3.2 4.8 0.00 0.00 0.00 71
20190419005017 17 18 3.2 8.0 0.00 0.00 0.00 70
20190419004019 17 345 4.8 9.7 0.00 0.00 0.00 71
20190419003017 17 320 4.8 9.7 0.00 0.00 0.00 71
20190419002018 17 359 3.2 6.4 0.00 0.00 0.00 71
20190419001016 17 358 3.2 9.7 0.00 0.00 0.00 71
20190419000016 17 37 3.2 8.0 0.00 0.00 0.00 70
20190418235018 17 47 8.0 14.5 0.00 0.00 0.00 67
20190418234017 18 52 6.4 14.5 0.00 0.00 0.00 64
20190418233042 18 352 3.2 6.4 0.00 0.00 0.00 69
20190418232016 17 18 3.2 14.5 0.00 0.00 0.00 72
20190418231017 16 20 3.2 8.0 0.00 0.00 0.00 80
20190418230017 15 35 1.6 6.4 0.00 0.00 0.00 83
20190418225016 15 12 1.6 4.8 0.00 0.00 0.00 84
20190418224017 14 32 1.6 6.4 0.00 0.00 0.00 86
20190418223018 14 50 3.2 4.8 0.00 0.00 0.00 86
20190418222018 14 44 0.0 4.8 0.00 0.00 0.00 88
20190418221018 13 55 1.6 4.8 0.00 0.00 0.00 89
20190418220018 13 97 1.6 4.8 0.00 0.00 0.00 91
20190418215017 13 115 0.0 3.2 0.00 0.00 0.00 91
20190418214018 12 0.0 1.6 0.00 0.00 0.00 92
20190418213017 12 127 1.6 4.8 0.00 0.00 0.00 92
20190418212018 12 135 0.0 3.2 0.00 0.00 0.00 92
20190418211016 12 0.0 0.0 0.00 0.00 0.00 92
20190418210016 12 158 0.0 1.6 0.00 0.00 0.00 91
20190418205018 12 197 0.0 3.2 0.00 0.00 0.00 92
20190418204016 12 190 1.6 3.2 0.00 0.00 0.00 92
20190418203018 12 189 1.6 4.8 0.00 0.00 0.00 92
20190418202016 11 180 0.0 4.8 0.00 0.00 0.00 92
20190418201018 11 187 3.2 4.8 0.00 0.00 0.00 92
20190418200018 12 192 1.6 6.4 0.00 0.00 0.00 92
20190418195016 12 201 1.6 4.8 0.00 0.00 0.00 93
20190418194018 12 182 0.0 4.8 0.00 0.00 0.00 93
20190418193016 12 90 0.0 3.2 0.00 0.00 0.00 94
20190418192017 11 225 0.0 1.6 0.00 0.00 0.00 94
20190418191016 11 0.0 1.6 0.00 0.00 0.00 94
20190418190016 11 199 1.6 4.8 0.00 0.00 0.00 94
20190418185018 11 0.0 0.0 0.00 0.00 0.00 95
20190418184017 11 210 0.0 3.2 0.00 0.00 0.00 95
20190418183017 11 218 0.0 4.8 0.00 0.00 0.00 95
20190418182017 11 219 0.0 3.2 0.00 0.00 0.00 95
20190418181016 11 0.0 0.0 0.00 0.00 0.00 95
20190418180017 11 225 0.0 1.6 0.00 0.00 0.00 95
20190418175016 11 0.0 0.0 0.00 0.00 0.00 95
20190418174018 11 194 0.0 1.6 0.00 0.00 0.00 95
20190418173018 11 135 0.0 3.2 0.00 0.00 0.00 95
20190418172016 11 180 0.0 3.2 0.00 0.00 0.00 95
20190418171017 11 180 1.6 4.8 0.00 0.00 0.00 95
20190418170018 11 180 0.0 3.2 0.00 0.00 0.00 95
20190418165018 11 180 1.6 3.2 0.00 0.00 0.00 96
20190418164016 11 172 1.6 4.8 0.00 0.00 0.00 96
20190418163018 11 180 3.2 6.4 0.00 0.00 0.00 96
20190418162018 11 178 3.2 4.8 0.00 0.00 0.00 96
20190418161017 11 176 3.2 8.0 0.00 0.00 0.00 96
20190418160017 11 180 1.6 4.8 0.00 0.00 0.00 96
20190418155017 11 186 0.0 4.8 0.00 0.00 0.00 96
20190418154018 11 139 1.6 6.4 0.00 0.00 0.00 96
20190418153017 11 133 3.2 11.3 0.00 0.00 0.00 96
20190418152017 11 142 4.8 9.7 0.00 0.00 0.00 95
20190418151018 11 167 4.8 9.7 0.00 0.00 0.00 95
20190418150018 11 166 4.8 11.3 0.00 0.00 0.00 95
20190418145017 11 166 4.8 9.7 0.00 0.00 0.00 95
20190418144017 11 158 3.2 8.0 0.00 0.00 0.00 95
20190418143019 11 164 4.8 8.0 0.00 0.00 0.00 95
20190418142017 11 159 4.8 8.0 0.00 0.00 0.00 93
20190418141018 11 126 1.6 6.4 0.00 0.00 0.00 93
20190418140017 11 142 3.2 8.0 0.00 0.00 0.00 93
20190418135018 11 158 3.2 6.4 0.00 0.00 0.00 93
20190418134018 11 143 4.8 8.0 0.00 0.00 0.00 92
20190418133017 11 151 3.2 8.0 0.00 0.00 0.00 92
20190418132017 11 136 3.2 8.0 0.00 0.00 0.00 91
20190418131017 12 146 4.8 9.7 0.00 0.00 0.00 91
20190418130017 12 128 3.2 9.7 0.00 0.00 0.00 91
20190418125018 12 131 4.8 9.7 0.00 0.00 0.00 91
20190418124018 12 144 3.2 8.0 0.00 0.00 0.00 91
20190418123017 12 142 3.2 8.0 0.00 0.00 0.00 92
20190418122020 12 127 3.2 9.7 0.00 0.00 0.00 92
20190418121018 12 132 3.2 8.0 0.00 0.00 0.00 93
20190418120018 12 155 3.2 6.4 0.00 0.00 0.00 93
20190418115018 12 128 4.8 9.7 0.00 0.00 0.00 94
20190418114019 12 126 4.8 9.7 0.00 0.00 0.00 94
20190418113017 12 120 4.8 8.0 0.00 0.00 0.00 94
20190418112017 12 130 4.8 11.3 0.00 0.00 0.00 94
20190418111016 12 124 4.8 9.7 0.00 0.00 0.00 93
20190418110017 12 159 4.8 8.0 0.00 0.00 0.00 93
20190418105017 12 135 3.2 6.4 0.00 0.00 0.00 93